Time;durP1;ratioP1;P1;durP2;ratioP2;P2;SDS_P1;SDS_P2;PMS_P1;PMS_P2;Temp;Humidity;BMP_temperature;BMP_pressure;BME280_temperature;BME280_humidity;BME280_pressure;Samples;Min_cycle;Max_cycle;Signal;HPM_P1;HPM_P2
2023/12/10 00:01:58;;;;;;;5.95;3.65;;;3.80;99.90;;;;;;5009685;28;20026;-63
2023/12/10 00:04:24;;;;;;;7.10;3.90;;;3.80;99.90;;;;;;4991709;28;20045;-63
2023/12/10 00:06:50;;;;;;;4.75;3.72;;;3.70;99.90;;;;;;5010455;28;20494;-62
2023/12/10 00:09:15;;;;;;;4.95;3.33;;;3.70;99.90;;;;;;5007996;28;20037;-61
2023/12/10 00:11:41;;;;;;;4.85;4.03;;;3.70;99.90;;;;;;5010673;28;20032;-62
2023/12/10 00:14:06;;;;;;;6.88;4.38;;;3.70;99.90;;;;;;5008385;28;20025;-64
2023/12/10 00:16:32;;;;;;;4.15;3.53;;;3.70;99.90;;;;;;5006967;28;20033;-62
2023/12/10 00:18:57;;;;;;;5.18;4.30;;;3.70;99.90;;;;;;5008829;28;20058;-64
2023/12/10 00:21:23;;;;;;;4.85;3.97;;;3.70;99.90;;;;;;5008007;28;20032;-64
2023/12/10 00:23:49;;;;;;;4.78;3.75;;;3.70;99.90;;;;;;5008296;28;20088;-64
2023/12/10 00:26:15;;;;;;;6.85;4.22;;;3.60;99.90;;;;;;5010296;28;20037;-64
2023/12/10 00:28:41;;;;;;;5.43;4.20;;;3.70;99.90;;;;;;5005089;28;20026;-63
2023/12/10 00:31:10;;;;;;;4.70;4.07;;;3.70;99.90;;;;;;5009634;28;20032;-63
2023/12/10 00:33:35;;;;;;;4.88;3.80;;;3.70;99.90;;;;;;5008221;28;20044;-64
2023/12/10 00:36:01;;;;;;;6.68;4.43;;;3.60;99.90;;;;;;4990687;28;20026;-63
2023/12/10 00:38:27;;;;;;;6.53;4.53;;;3.60;99.90;;;;;;4988921;28;20034;-63
2023/12/10 00:40:52;;;;;;;6.70;4.60;;;3.60;99.90;;;;;;5005178;28;20026;-63
2023/12/10 00:43:18;;;;;;;7.10;4.43;;;3.60;99.90;;;;;;5005136;28;20064;-62
2023/12/10 00:45:44;;;;;;;5.10;4.20;;;3.60;99.90;;;;;;5007273;28;20030;-63
2023/12/10 00:48:12;;;;;;;6.45;4.63;;;3.60;99.90;;;;;;5007477;28;20160;-63
2023/12/10 00:50:38;;;;;;;5.60;4.43;;;3.60;99.90;;;;;;5005272;28;20064;-63
2023/12/10 00:53:04;;;;;;;5.38;4.13;;;3.60;99.90;;;;;;5006745;28;20572;-63
2023/12/10 00:55:29;;;;;;;5.82;4.60;;;3.60;99.90;;;;;;5005399;28;20193;-61
2023/12/10 00:57:55;;;;;;;5.85;4.15;;;3.60;99.90;;;;;;5005720;28;20406;-63
2023/12/10 01:00:21;;;;;;;5.38;4.07;;;3.60;99.90;;;;;;5007918;28;20026;-63
2023/12/10 01:02:48;;;;;;;6.18;3.92;;;3.60;99.90;;;;;;4989411;28;20066;-62
2023/12/10 01:05:13;;;;;;;5.65;4.05;;;3.60;99.90;;;;;;5007241;28;20025;-63
2023/12/10 01:07:39;;;;;;;4.47;3.13;;;3.60;99.90;;;;;;5003730;28;20486;-60
2023/12/10 01:10:05;;;;;;;5.53;3.47;;;3.70;99.90;;;;;;4985032;28;20116;-62
2023/12/10 01:12:37;;;;;;;4.22;3.72;;;3.60;99.90;;;;;;5007724;28;20021;-60
2023/12/10 01:15:08;;;;;;;4.00;3.30;;;3.60;99.90;;;;;;5008610;28;20018;-63
2023/12/10 01:17:33;;;;;;;5.45;3.35;;;3.60;99.90;;;;;;5006779;28;20021;-62
2023/12/10 01:20:00;;;;;;;6.07;4.15;;;3.60;99.90;;;;;;5008069;28;20018;-61
2023/12/10 01:22:26;;;;;;;3.78;3.10;;;3.60;99.90;;;;;;4997670;28;20062;-63
2023/12/10 01:24:52;;;;;;;5.00;3.60;;;3.60;99.90;;;;;;4999793;28;20058;-60
2023/12/10 01:27:18;;;;;;;3.85;3.00;;;3.60;99.90;;;;;;4985351;28;20030;-63
2023/12/10 01:29:44;;;;;;;5.10;2.95;;;3.60;99.90;;;;;;5003232;28;20033;-62
2023/12/10 01:32:10;;;;;;;4.90;4.05;;;3.60;99.90;;;;;;5007389;28;21339;-63
2023/12/10 01:34:36;;;;;;;3.53;2.95;;;3.60;99.90;;;;;;5006746;28;20108;-62
2023/12/10 01:37:02;;;;;;;5.10;3.40;;;3.60;99.90;;;;;;5008733;28;20097;-62
2023/12/10 01:39:27;;;;;;;5.55;3.85;;;3.60;99.90;;;;;;5006184;28;20030;-64
2023/12/10 01:41:53;;;;;;;3.38;2.75;;;3.60;99.90;;;;;;5003176;28;20084;-60
2023/12/10 01:44:19;;;;;;;4.05;3.53;;;3.70;99.90;;;;;;5003180;28;20418;-63
2023/12/10 01:46:45;;;;;;;3.92;3.28;;;3.70;99.90;;;;;;5003228;28;20109;-62
2023/12/10 01:49:11;;;;;;;6.57;3.70;;;3.70;99.90;;;;;;5004817;28;20030;-61
2023/12/10 01:51:37;;;;;;;3.67;3.25;;;3.60;99.90;;;;;;5004406;28;20478;-62
2023/12/10 01:54:03;;;;;;;3.90;3.15;;;3.60;99.90;;;;;;5003496;28;20109;-62
2023/12/10 01:56:30;;;;;;;3.63;3.33;;;3.60;99.90;;;;;;5007137;28;20034;-63
2023/12/10 01:58:56;;;;;;;4.88;3.45;;;3.70;99.90;;;;;;5005826;28;20034;-62
2023/12/10 02:01:23;;;;;;;4.57;3.13;;;3.70;99.90;;;;;;5005981;28;20033;-63
2023/12/10 02:03:49;;;;;;;4.47;3.67;;;3.70;99.90;;;;;;5007785;28;20478;-63
2023/12/10 02:06:15;;;;;;;6.22;3.30;;;3.70;99.90;;;;;;5005935;28;20549;-62
2023/12/10 02:08:41;;;;;;;6.28;3.90;;;3.70;99.90;;;;;;5007285;28;20101;-62
2023/12/10 02:11:06;;;;;;;6.03;3.70;;;3.70;99.90;;;;;;5004941;28;20168;-62
2023/12/10 02:13:33;;;;;;;5.10;3.67;;;3.70;99.90;;;;;;5006265;28;20091;-62
2023/12/10 02:15:59;;;;;;;4.90;3.70;;;3.80;99.90;;;;;;5005077;28;20555;-62
2023/12/10 02:18:24;;;;;;;3.97;3.58;;;3.80;99.90;;;;;;5006734;28;20022;-62
2023/12/10 02:20:50;;;;;;;4.80;3.75;;;3.80;99.90;;;;;;5001378;28;20171;-62
2023/12/10 02:23:30;;;;;;;5.47;3.70;;;3.80;99.90;;;;;;4999058;28;20033;-63
2023/12/10 02:25:56;;;;;;;5.00;4.03;;;3.80;99.90;;;;;;4999520;28;20068;-63
2023/12/10 02:28:22;;;;;;;5.78;3.95;;;3.80;99.90;;;;;;4985791;28;20104;-63
2023/12/10 02:30:49;;;;;;;5.55;4.22;;;3.90;99.90;;;;;;5001037;28;20049;-62
2023/12/10 02:33:15;;;;;;;5.25;4.13;;;3.90;99.90;;;;;;4986284;28;20099;-63
2023/12/10 02:35:40;;;;;;;5.55;3.88;;;3.90;99.90;;;;;;5000328;28;20517;-63
2023/12/10 02:38:06;;;;;;;5.40;3.75;;;3.90;99.90;;;;;;4999936;28;20014;-63
2023/12/10 02:40:32;;;;;;;6.85;4.25;;;3.90;99.90;;;;;;4999132;28;20030;-63
2023/12/10 02:42:57;;;;;;;6.22;4.93;;;4.00;99.90;;;;;;5001288;28;20060;-63
2023/12/10 02:45:23;;;;;;;5.35;3.92;;;4.00;99.90;;;;;;5001948;28;20109;-62
2023/12/10 02:47:48;;;;;;;8.90;4.53;;;4.00;99.90;;;;;;5002911;28;20574;-63
2023/12/10 02:50:14;;;;;;;6.93;4.22;;;4.00;99.90;;;;;;5002068;28;20026;-63
2023/12/10 02:52:39;;;;;;;8.13;5.30;;;4.00;99.90;;;;;;4999887;28;20101;-63
2023/12/10 02:55:06;;;;;;;5.60;4.60;;;4.00;99.90;;;;;;4999740;28;20106;-63
2023/12/10 02:57:32;;;;;;;6.88;4.22;;;4.00;99.90;;;;;;5005071;28;20041;-64
2023/12/10 02:59:58;;;;;;;7.35;4.78;;;4.10;99.90;;;;;;5004022;28;20621;-63
2023/12/10 03:02:23;;;;;;;7.75;5.05;;;4.10;99.90;;;;;;4999947;28;20030;-63
2023/12/10 03:04:49;;;;;;;9.32;4.78;;;4.10;99.90;;;;;;5004530;28;20025;-63
2023/12/10 03:07:15;;;;;;;7.60;4.80;;;4.10;99.90;;;;;;4999548;28;20037;-62
2023/12/10 03:09:40;;;;;;;6.78;4.90;;;4.10;99.90;;;;;;4984806;28;20041;-63
2023/12/10 03:12:06;;;;;;;8.70;5.00;;;4.10;99.90;;;;;;5005748;28;20373;-63
2023/12/10 03:14:32;;;;;;;7.65;4.97;;;4.20;99.90;;;;;;5001305;28;20053;-62
2023/12/10 03:16:57;;;;;;;8.30;5.25;;;4.10;99.90;;;;;;4987598;28;20034;-64
2023/12/10 03:19:23;;;;;;;5.97;4.80;;;4.20;99.90;;;;;;5006129;28;20390;-64
2023/12/10 03:21:48;;;;;;;6.82;4.90;;;4.20;99.90;;;;;;4990677;28;20038;-64
2023/12/10 03:24:14;;;;;;;11.00;5.65;;;4.20;99.90;;;;;;5005162;28;20561;-63
2023/12/10 03:26:39;;;;;;;8.73;5.00;;;4.20;99.90;;;;;;5007287;28;20069;-64
2023/12/10 03:29:05;;;;;;;8.10;4.68;;;4.20;99.90;;;;;;5006146;28;20402;-63
2023/12/10 03:31:31;;;;;;;8.07;5.28;;;4.20;99.90;;;;;;5006100;28;20021;-63
2023/12/10 03:33:56;;;;;;;8.90;5.65;;;4.20;99.90;;;;;;5007179;28;20108;-63
2023/12/10 03:36:22;;;;;;;7.82;4.45;;;4.20;99.90;;;;;;4991429;28;20029;-63
2023/12/10 03:38:48;;;;;;;12.23;5.28;;;4.20;99.90;;;;;;5002960;28;20030;-63
2023/12/10 03:41:13;;;;;;;7.75;4.55;;;4.20;99.90;;;;;;5008823;28;20033;-63
2023/12/10 03:43:39;;;;;;;11.60;5.75;;;4.20;99.90;;;;;;4986527;28;20025;-63
2023/12/10 03:46:05;;;;;;;6.65;5.15;;;4.20;99.90;;;;;;5006938;28;20074;-63
2023/12/10 03:48:30;;;;;;;11.52;5.15;;;4.20;99.90;;;;;;5003825;28;20030;-64
2023/12/10 03:50:56;;;;;;;10.20;5.35;;;4.30;99.90;;;;;;5004105;28;20026;-63
2023/12/10 03:53:22;;;;;;;10.30;5.20;;;4.20;99.90;;;;;;5002002;28;20033;-63
2023/12/10 03:55:48;;;;;;;9.23;5.55;;;4.20;99.90;;;;;;5004632;28;20097;-63
2023/12/10 03:58:13;;;;;;;10.90;5.20;;;4.30;99.90;;;;;;4989743;28;20113;-64
2023/12/10 04:00:39;;;;;;;9.25;4.80;;;4.30;99.90;;;;;;5006590;28;20026;-63
2023/12/10 04:03:05;;;;;;;10.48;4.78;;;4.30;99.90;;;;;;4989237;28;20554;-63
2023/12/10 04:05:30;;;;;;;8.95;5.13;;;4.30;99.90;;;;;;4990102;28;20041;-62
2023/12/10 04:07:56;;;;;;;10.20;4.95;;;4.30;99.90;;;;;;5006135;28;20606;-63
2023/12/10 04:10:22;;;;;;;5.20;4.45;;;4.30;99.90;;;;;;4986426;28;20026;-63
2023/12/10 04:12:47;;;;;;;9.07;4.68;;;4.40;99.90;;;;;;5001907;28;20544;-63
2023/12/10 04:15:13;;;;;;;9.13;4.57;;;4.40;99.90;;;;;;5002588;28;20454;-63
2023/12/10 04:17:38;;;;;;;9.38;4.60;;;4.40;99.90;;;;;;4987531;28;20053;-62
2023/12/10 04:20:06;;;;;;;13.88;4.93;;;4.40;99.90;;;;;;4989839;28;20509;-62
2023/12/10 04:22:31;;;;;;;8.27;5.32;;;4.40;99.90;;;;;;5006201;28;20040;-63
2023/12/10 04:24:57;;;;;;;7.20;4.55;;;4.50;99.90;;;;;;5006461;28;20022;-63
2023/12/10 04:27:25;;;;;;;10.02;5.22;;;4.50;99.90;;;;;;4990178;28;20518;-63
2023/12/10 04:29:51;;;;;;;14.27;6.57;;;4.50;99.90;;;;;;5003601;28;20026;-63
2023/12/10 04:32:17;;;;;;;13.10;6.35;;;4.40;99.90;;;;;;4985993;28;20625;-62
2023/12/10 04:34:43;;;;;;;11.77;5.25;;;4.40;99.90;;;;;;4988654;28;20089;-61
2023/12/10 04:37:09;;;;;;;10.50;5.43;;;4.40;99.90;;;;;;5005072;28;20413;-62
2023/12/10 04:39:34;;;;;;;14.27;5.07;;;4.30;99.90;;;;;;5005843;28;20022;-63
2023/12/10 04:42:00;;;;;;;10.05;4.50;;;4.20;99.90;;;;;;5003024;28;20560;-62
2023/12/10 04:44:25;;;;;;;7.07;4.47;;;4.20;99.90;;;;;;5006730;28;20069;-62
2023/12/10 04:46:51;;;;;;;8.52;4.65;;;4.20;99.90;;;;;;5007731;28;20498;-63
2023/12/10 04:49:17;;;;;;;10.25;4.30;;;4.20;99.90;;;;;;5002334;28;20042;-62
2023/12/10 04:51:42;;;;;;;9.80;4.38;;;4.10;99.90;;;;;;5005540;28;20060;-63
2023/12/10 04:54:08;;;;;;;13.93;4.82;;;4.20;99.90;;;;;;5005021;28;20038;-63
2023/12/10 04:56:33;;;;;;;18.20;4.50;;;4.20;99.90;;;;;;5005652;28;20026;-62
2023/12/10 04:58:59;;;;;;;9.48;3.70;;;4.20;99.90;;;;;;5005799;28;20018;-62
2023/12/10 05:01:25;;;;;;;11.63;3.00;;;4.20;99.90;;;;;;5004755;28;20062;-62
2023/12/10 05:03:50;;;;;;;14.13;2.80;;;4.30;99.90;;;;;;5006312;28;20026;-63
2023/12/10 05:06:16;;;;;;;10.23;3.20;;;4.30;99.90;;;;;;4988342;28;20053;-63
2023/12/10 05:08:42;;;;;;;17.02;4.07;;;4.40;99.90;;;;;;5007423;28;20080;-63
2023/12/10 05:11:07;;;;;;;8.13;2.45;;;4.50;99.90;;;;;;5002913;28;20096;-62
2023/12/10 05:13:33;;;;;;;19.92;3.38;;;4.60;99.90;;;;;;5002195;28;20061;-59
2023/12/10 05:15:59;;;;;;;13.65;3.15;;;4.60;99.90;;;;;;5005427;28;20084;-63
2023/12/10 05:18:24;;;;;;;10.93;2.63;;;4.70;99.90;;;;;;5004910;28;20036;-63
2023/12/10 05:20:50;;;;;;;18.77;3.38;;;4.80;99.90;;;;;;5005515;28;20563;-62
2023/12/10 05:23:16;;;;;;;15.32;3.25;;;4.80;99.90;;;;;;5003745;28;20045;-63
2023/12/10 05:25:41;;;;;;;17.38;3.10;;;4.90;99.90;;;;;;4988058;28;20529;-62
2023/12/10 05:28:07;;;;;;;14.70;2.85;;;4.90;99.90;;;;;;5002871;28;20046;-63
2023/12/10 05:30:32;;;;;;;11.18;2.75;;;5.00;99.90;;;;;;5003900;28;20061;-64
2023/12/10 05:32:58;;;;;;;12.70;3.42;;;5.00;99.90;;;;;;5005775;28;20033;-63
2023/12/10 05:35:23;;;;;;;12.43;2.80;;;5.00;99.90;;;;;;5006522;28;20087;-63
2023/12/10 05:37:49;;;;;;;12.68;3.17;;;5.00;99.90;;;;;;5005107;28;20114;-63
2023/12/10 05:40:15;;;;;;;10.30;2.17;;;5.00;99.90;;;;;;5005711;28;20026;-63
2023/12/10 05:42:40;;;;;;;10.68;2.28;;;5.00;99.90;;;;;;5001706;28;20033;-63
2023/12/10 05:45:07;;;;;;;13.13;2.50;;;5.10;99.90;;;;;;4987922;28;20105;-61
2023/12/10 05:47:33;;;;;;;16.95;4.18;;;5.10;99.90;;;;;;5003194;28;20083;-63
2023/12/10 05:49:58;;;;;;;12.20;3.05;;;5.10;99.90;;;;;;5004802;28;20029;-61
2023/12/10 05:52:24;;;;;;;14.88;3.42;;;5.10;99.90;;;;;;5004339;28;20014;-62
2023/12/10 05:54:50;;;;;;;11.68;2.40;;;5.20;99.90;;;;;;5003618;28;20025;-63
2023/12/10 05:57:16;;;;;;;8.90;1.92;;;5.20;99.90;;;;;;5003610;28;20026;-63
2023/12/10 05:59:41;;;;;;;8.57;1.83;;;5.20;99.90;;;;;;5004006;28;20514;-63
2023/12/10 06:02:07;;;;;;;16.50;2.97;;;5.20;99.90;;;;;;4984742;28;20109;-62
2023/12/10 06:04:32;;;;;;;15.23;3.22;;;5.30;99.90;;;;;;5003179;28;20037;-64
2023/12/10 06:06:58;;;;;;;9.38;2.72;;;5.30;99.90;;;;;;5002566;28;20099;-63
2023/12/10 06:09:24;;;;;;;14.63;3.38;;;5.30;99.90;;;;;;5002042;28;20686;-63
2023/12/10 06:11:49;;;;;;;10.70;2.83;;;5.30;99.90;;;;;;5002536;28;20411;-63
2023/12/10 06:14:15;;;;;;;12.80;2.95;;;5.30;99.90;;;;;;5003671;28;20034;-63
2023/12/10 06:16:40;;;;;;;14.68;2.92;;;5.30;99.90;;;;;;5000718;28;20022;-63
2023/12/10 06:19:06;;;;;;;10.23;2.85;;;5.30;99.90;;;;;;5006725;28;20153;-60
2023/12/10 06:21:33;;;;;;;9.30;3.42;;;5.30;99.90;;;;;;5004666;28;20030;-62
2023/12/10 06:23:59;;;;;;;7.60;2.75;;;5.40;99.90;;;;;;5003946;28;20030;-63
2023/12/10 06:26:24;;;;;;;19.17;3.55;;;5.40;99.90;;;;;;5004790;28;20605;-63
2023/12/10 06:28:50;;;;;;;18.67;2.63;;;5.40;99.90;;;;;;5000847;28;20518;-60
2023/12/10 06:31:16;;;;;;;14.10;2.95;;;5.40;99.90;;;;;;5004819;28;20599;-62
2023/12/10 06:33:47;;;;;;;12.52;2.45;;;5.50;99.90;;;;;;5001412;28;20502;-62
2023/12/10 06:36:12;;;;;;;18.63;3.78;;;5.50;99.90;;;;;;5003578;28;20026;-61
2023/12/10 06:38:38;;;;;;;10.55;2.13;;;5.50;99.90;;;;;;5004379;28;20030;-63
2023/12/10 06:41:04;;;;;;;8.05;2.25;;;5.50;99.90;;;;;;5004061;28;20537;-63
2023/12/10 06:43:29;;;;;;;9.50;3.03;;;5.50;99.90;;;;;;5004152;28;20057;-62
2023/12/10 06:45:58;;;;;;;6.75;2.97;;;5.50;99.90;;;;;;5002575;28;20033;-60
2023/12/10 06:48:25;;;;;;;8.20;2.55;;;5.50;99.90;;;;;;5005062;28;20375;-62
2023/12/10 06:50:51;;;;;;;9.82;2.40;;;5.50;99.90;;;;;;4986892;28;20683;-63
2023/12/10 06:53:17;;;;;;;5.95;2.22;;;5.50;99.90;;;;;;5002905;28;20040;-62
2023/12/10 06:55:43;;;;;;;11.60;2.70;;;5.50;99.90;;;;;;5000093;28;20472;-62
2023/12/10 06:58:08;;;;;;;9.98;1.98;;;5.50;99.90;;;;;;4999442;28;20025;-62
2023/12/10 07:00:34;;;;;;;9.77;3.08;;;5.50;99.90;;;;;;4998492;28;20032;-60
2023/12/10 07:02:59;;;;;;;13.13;4.15;;;5.50;99.90;;;;;;4999047;28;20733;-62
2023/12/10 07:05:25;;;;;;;13.15;3.78;;;5.50;99.90;;;;;;5000399;28;20052;-61
2023/12/10 07:07:50;;;;;;;12.57;3.10;;;5.50;99.90;;;;;;5000600;28;20033;-63
2023/12/10 07:10:16;;;;;;;13.55;2.75;;;5.50;99.90;;;;;;4998495;28;20123;-63
2023/12/10 07:12:42;;;;;;;11.52;3.15;;;5.60;99.90;;;;;;5002327;28;20431;-62
2023/12/10 07:15:07;;;;;;;10.10;2.47;;;5.60;99.90;;;;;;5005830;28;20058;-62
2023/12/10 07:17:36;;;;;;;7.57;2.60;;;5.60;99.90;;;;;;5005216;28;20042;-62
2023/12/10 07:20:02;;;;;;;15.32;2.65;;;5.50;99.90;;;;;;5002766;28;20041;-60
2023/12/10 07:22:27;;;;;;;8.52;2.67;;;5.50;99.90;;;;;;5001086;28;20038;-62
2023/12/10 07:24:53;;;;;;;13.00;2.45;;;5.50;99.90;;;;;;5004477;28;20029;-62
2023/12/10 07:27:22;;;;;;;7.72;2.35;;;5.60;99.90;;;;;;5001944;28;20033;-62
2023/12/10 07:29:48;;;;;;;14.20;2.60;;;5.60;99.90;;;;;;4987154;28;20022;-61
2023/12/10 07:32:13;;;;;;;6.20;2.30;;;5.60;99.90;;;;;;5002267;28;20105;-62
2023/12/10 07:34:39;;;;;;;11.85;2.40;;;5.60;99.90;;;;;;5000253;28;20088;-62
2023/12/10 07:37:04;;;;;;;10.70;2.30;;;5.50;99.90;;;;;;5003589;28;20026;-62
2023/12/10 07:39:30;;;;;;;9.93;2.42;;;5.50;99.90;;;;;;5004158;28;20084;-62
2023/12/10 07:41:55;;;;;;;9.13;2.60;;;5.60;99.90;;;;;;4999539;28;20034;-61
2023/12/10 07:44:23;;;;;;;5.63;1.70;;;5.50;99.90;;;;;;5004919;28;20038;-61
2023/12/10 07:46:48;;;;;;;4.05;1.77;;;5.60;99.90;;;;;;5004565;28;20084;-60
2023/12/10 07:49:14;;;;;;;7.00;2.00;;;5.60;99.90;;;;;;4998162;28;20037;-60
2023/12/10 07:51:39;;;;;;;7.85;2.10;;;5.50;99.90;;;;;;4999100;28;20037;-60
2023/12/10 07:54:05;;;;;;;6.57;2.10;;;5.50;99.90;;;;;;5002417;28;20415;-62
2023/12/10 07:56:31;;;;;;;7.20;2.40;;;5.60;99.90;;;;;;5002944;28;20109;-63
2023/12/10 07:58:57;;;;;;;9.85;2.35;;;5.60;99.90;;;;;;5003924;28;20375;-61
2023/12/10 08:01:22;;;;;;;4.82;2.30;;;5.60;99.90;;;;;;4986412;28;20037;-62
2023/12/10 08:03:48;;;;;;;9.65;2.53;;;5.60;99.90;;;;;;5001691;28;20041;-60
2023/12/10 08:06:13;;;;;;;5.65;2.40;;;5.60;99.90;;;;;;5006660;28;20080;-63
2023/12/10 08:08:39;;;;;;;7.13;2.58;;;5.60;99.90;;;;;;5006573;28;20041;-61
2023/12/10 08:11:05;;;;;;;10.65;2.38;;;5.60;99.90;;;;;;5008289;28;20045;-60
2023/12/10 08:13:31;;;;;;;7.15;2.35;;;5.70;99.90;;;;;;5006502;28;20100;-60
2023/12/10 08:15:57;;;;;;;11.23;2.35;;;5.60;99.90;;;;;;4987619;28;20113;-60
2023/12/10 08:18:24;;;;;;;5.53;2.05;;;5.60;99.90;;;;;;5007061;28;20142;-62
2023/12/10 08:20:50;;;;;;;11.88;2.33;;;5.60;99.90;;;;;;5007908;28;20022;-62
2023/12/10 08:23:15;;;;;;;7.35;1.80;;;5.60;99.90;;;;;;5009050;28;20509;-60
2023/12/10 08:25:42;;;;;;;8.00;1.83;;;5.60;99.90;;;;;;5004457;28;20196;-61
2023/12/10 08:28:08;;;;;;;14.95;2.42;;;5.60;99.90;;;;;;5008543;28;20550;-62
2023/12/10 08:30:33;;;;;;;8.35;2.05;;;5.60;99.90;;;;;;5004088;28;20038;-59
2023/12/10 08:32:59;;;;;;;7.68;1.70;;;5.60;99.90;;;;;;4975204;28;20037;-60
2023/12/10 08:35:25;;;;;;;9.18;2.10;;;5.60;99.90;;;;;;4979248;28;20029;-59
2023/12/10 08:37:50;;;;;;;11.18;2.25;;;5.60;99.90;;;;;;4949997;28;20518;-60
2023/12/10 08:40:16;;;;;;;6.05;1.67;;;5.60;99.90;;;;;;4964656;28;20041;-61
2023/12/10 08:42:42;;;;;;;6.65;2.00;;;5.60;99.90;;;;;;4972962;28;20029;-62
2023/12/10 08:45:08;;;;;;;9.20;2.40;;;5.60;99.90;;;;;;4952635;28;20722;-61
2023/12/10 08:47:35;;;;;;;5.30;1.60;;;5.70;99.90;;;;;;4992785;28;20038;-62
2023/12/10 08:50:02;;;;;;;8.85;2.30;;;5.70;99.90;;;;;;5001146;28;20025;-63
2023/12/10 08:52:28;;;;;;;7.13;1.50;;;5.60;99.90;;;;;;5003757;28;20496;-63
2023/12/10 08:54:54;;;;;;;5.07;1.90;;;5.70;99.90;;;;;;5003456;28;20030;-62
2023/12/10 08:57:21;;;;;;;5.65;2.22;;;5.70;99.90;;;;;;5007605;28;20030;-60
2023/12/10 08:59:47;;;;;;;17.15;3.95;;;5.70;99.90;;;;;;5005810;28;20161;-60
2023/12/10 09:02:12;;;;;;;15.10;6.45;;;5.70;99.90;;;;;;5003944;28;20196;-62
2023/12/10 09:04:38;;;;;;;13.95;5.40;;;5.70;99.90;;;;;;5001891;28;20057;-63
2023/12/10 09:07:04;;;;;;;9.35;3.80;;;5.70;99.90;;;;;;4934773;28;20084;-61
2023/12/10 09:09:32;;;;;;;7.03;2.90;;;5.70;99.90;;;;;;4954097;28;20113;-62
2023/12/10 09:11:58;;;;;;;6.72;3.42;;;5.80;99.90;;;;;;4927070;28;20030;-62
2023/12/10 09:14:23;;;;;;;7.03;3.72;;;5.70;99.90;;;;;;4918601;28;20025;-61
2023/12/10 09:16:52;;;;;;;7.63;3.00;;;5.70;99.90;;;;;;4920787;28;20022;-62
2023/12/10 09:19:21;;;;;;;6.50;2.78;;;5.70;99.90;;;;;;4950870;28;20176;-61
2023/12/10 09:21:47;;;;;;;5.93;5.10;;;5.70;99.90;;;;;;4967353;28;20169;-61
2023/12/10 09:24:13;;;;;;;11.63;6.15;;;5.70;99.90;;;;;;4926152;28;20053;-61
2023/12/10 09:26:39;;;;;;;7.72;6.00;;;5.70;99.90;;;;;;4919270;28;20038;-60
2023/12/10 09:29:05;;;;;;;5.88;4.88;;;5.70;99.90;;;;;;4920457;28;21867;-61
2023/12/10 09:31:30;;;;;;;7.65;4.03;;;5.70;99.90;;;;;;4948944;28;20512;-61
2023/12/10 09:33:56;;;;;;;7.43;2.97;;;5.70;99.90;;;;;;4944921;28;20026;-63
2023/12/10 09:36:22;;;;;;;3.55;2.05;;;5.70;99.90;;;;;;4925556;28;20034;-61
2023/12/10 09:38:48;;;;;;;5.10;2.47;;;5.70;99.90;;;;;;4921513;28;20037;-61
2023/12/10 09:41:13;;;;;;;5.18;2.17;;;5.80;99.90;;;;;;4915069;28;20030;-61
2023/12/10 09:43:39;;;;;;;5.85;2.53;;;5.80;99.90;;;;;;4948939;28;20113;-61
2023/12/10 09:46:06;;;;;;;8.38;2.97;;;5.80;99.90;;;;;;4910225;28;20038;-62
2023/12/10 09:48:32;;;;;;;5.65;2.30;;;5.80;99.90;;;;;;4962511;28;20567;-62
2023/12/10 09:50:58;;;;;;;5.82;2.50;;;5.80;99.90;;;;;;4918316;28;20030;-58
2023/12/10 09:53:23;;;;;;;7.20;2.40;;;5.80;99.90;;;;;;4892910;28;20014;-62
2023/12/10 09:55:49;;;;;;;7.05;2.30;;;5.80;99.90;;;;;;4913685;28;20026;-62
2023/12/10 09:58:14;;;;;;;5.82;2.42;;;5.80;99.90;;;;;;4951528;28;22555;-61
2023/12/10 10:00:40;;;;;;;4.47;2.90;;;5.80;99.90;;;;;;4962446;28;20052;-61
2023/12/10 10:03:06;;;;;;;4.32;2.65;;;5.90;99.90;;;;;;4914768;28;20038;-59
2023/12/10 10:05:35;;;;;;;5.72;3.30;;;5.90;99.90;;;;;;4905415;28;20049;-62
2023/12/10 10:08:01;;;;;;;4.32;2.33;;;5.90;99.90;;;;;;4891525;28;20037;-60
2023/12/10 10:10:27;;;;;;;6.15;3.47;;;5.90;99.90;;;;;;4973281;28;20062;-60
2023/12/10 10:12:54;;;;;;;5.97;3.08;;;5.90;99.90;;;;;;4984533;28;20019;-61
2023/12/10 10:15:27;;;;;;;9.77;3.85;;;5.90;99.90;;;;;;4999405;28;20121;-60
2023/12/10 10:17:54;;;;;;;8.60;2.75;;;5.90;99.90;;;;;;5004059;28;20022;-61
2023/12/10 10:20:24;;;;;;;4.22;2.88;;;5.90;99.90;;;;;;5002415;28;20041;-59
2023/12/10 10:22:51;;;;;;;6.07;2.92;;;5.90;99.90;;;;;;4998710;28;20037;-60
2023/12/10 10:25:18;;;;;;;4.55;2.65;;;5.90;99.90;;;;;;4945923;28;20504;-58
2023/12/10 10:27:44;;;;;;;3.97;2.50;;;6.00;99.90;;;;;;4971214;28;20552;-61
2023/12/10 10:30:10;;;;;;;3.70;2.75;;;6.00;99.90;;;;;;4945682;28;20041;-59
2023/12/10 10:32:37;;;;;;;6.53;2.65;;;6.00;99.90;;;;;;4939528;28;20497;-60
2023/12/10 10:35:04;;;;;;;5.68;2.15;;;6.00;99.90;;;;;;4941964;28;20060;-60
2023/12/10 10:37:30;;;;;;;2.97;1.88;;;6.00;99.90;;;;;;4925994;28;20057;-60
2023/12/10 10:39:56;;;;;;;7.43;2.40;;;6.10;99.90;;;;;;4922264;28;20127;-59
2023/12/10 10:42:22;;;;;;;6.72;3.03;;;6.10;99.90;;;;;;4965144;28;20059;-61
2023/12/10 10:44:48;;;;;;;7.68;2.40;;;6.10;99.90;;;;;;4943283;28;20030;-60
2023/12/10 10:47:18;;;;;;;4.35;2.20;;;6.10;99.90;;;;;;4929028;28;20034;-61
2023/12/10 10:49:47;;;;;;;5.88;2.08;;;6.20;99.90;;;;;;4931542;28;20064;-61
2023/12/10 10:52:16;;;;;;;5.03;2.05;;;6.20;99.90;;;;;;4907306;28;21558;-61
2023/12/10 10:54:43;;;;;;;4.57;2.10;;;6.20;99.90;;;;;;4963015;28;20029;-61
2023/12/10 10:57:09;;;;;;;4.18;2.10;;;6.20;99.90;;;;;;4931658;28;20022;-61
2023/12/10 10:59:34;;;;;;;4.90;2.00;;;6.20;99.90;;;;;;4888794;28;21919;-59
2023/12/10 11:02:01;;;;;;;2.10;1.90;;;6.30;99.90;;;;;;4931571;28;20222;-60
2023/12/10 11:04:36;;;;;;;7.97;2.15;;;6.30;99.90;;;;;;4939732;28;20092;-60
2023/12/10 11:07:03;;;;;;;2.45;1.65;;;6.30;99.90;;;;;;4941024;28;21543;-61
2023/12/10 11:09:32;;;;;;;2.80;1.70;;;6.40;99.90;;;;;;4974370;28;20026;-62
2023/12/10 11:11:58;;;;;;;6.63;1.95;;;6.40;99.90;;;;;;4904701;28;20026;-60
2023/12/10 11:14:25;;;;;;;3.22;1.88;;;6.40;99.90;;;;;;4942758;28;20034;-61
2023/12/10 11:17:01;;;;;;;3.42;2.17;;;6.40;99.90;;;;;;4932604;28;20041;-61
2023/12/10 11:19:28;;;;;;;2.47;1.67;;;6.40;99.90;;;;;;4932464;28;20057;-60
2023/12/10 11:21:55;;;;;;;2.67;1.60;;;6.40;99.90;;;;;;4914022;28;20026;-61
2023/12/10 11:24:20;;;;;;;4.28;1.63;;;6.50;99.90;;;;;;4974637;28;20026;-57
2023/12/10 11:26:46;;;;;;;5.13;2.20;;;6.50;99.90;;;;;;4941404;28;20045;-61
2023/12/10 11:29:12;;;;;;;4.95;2.30;;;6.60;99.90;;;;;;4939221;28;20455;-58
2023/12/10 11:31:38;;;;;;;3.72;1.75;;;6.60;99.90;;;;;;4922147;28;20026;-63
2023/12/10 11:34:04;;;;;;;3.83;1.75;;;6.70;99.90;;;;;;4933941;28;21672;-59
2023/12/10 11:36:30;;;;;;;3.53;2.38;;;6.80;99.90;;;;;;4993948;28;20151;-60
2023/12/10 11:38:56;;;;;;;3.35;2.00;;;6.80;99.90;;;;;;4940763;28;20049;-60
2023/12/10 11:41:23;;;;;;;4.60;2.25;;;6.90;99.90;;;;;;4940342;28;20116;-61
2023/12/10 11:43:49;;;;;;;6.60;3.10;;;6.90;99.90;;;;;;4940910;28;20130;-61
2023/12/10 11:46:22;;;;;;;8.73;3.40;;;7.00;99.90;;;;;;4944276;28;20117;-62
2023/12/10 11:48:49;;;;;;;6.57;2.75;;;7.00;99.90;;;;;;4962550;28;20125;-62
2023/12/10 11:51:17;;;;;;;3.80;2.25;;;7.00;99.90;;;;;;4957390;28;20247;-61
2023/12/10 11:53:43;;;;;;;6.15;3.08;;;7.00;99.90;;;;;;4937461;28;20021;-61
2023/12/10 11:56:10;;;;;;;5.20;2.70;;;7.00;99.90;;;;;;4926323;28;20492;-62
2023/12/10 11:58:35;;;;;;;8.65;2.42;;;7.00;99.90;;;;;;4936244;28;20025;-62
2023/12/10 12:01:02;;;;;;;5.50;3.03;;;7.00;99.90;;;;;;4983488;28;20024;-62
2023/12/10 12:03:31;;;;;;;5.80;2.83;;;7.10;99.90;;;;;;5002389;28;20088;-62
2023/12/10 12:05:57;;;;;;;4.97;2.83;;;7.10;99.90;;;;;;4975122;28;20057;-61
2023/12/10 12:08:28;;;;;;;4.18;3.30;;;7.10;99.90;;;;;;4977679;28;20023;-61
2023/12/10 12:10:57;;;;;;;6.07;2.95;;;7.10;99.90;;;;;;4976429;28;20033;-62
2023/12/10 12:13:23;;;;;;;5.05;2.58;;;7.10;99.90;;;;;;4978488;28;20034;-61
2023/12/10 12:15:51;;;;;;;9.40;2.80;;;7.10;99.90;;;;;;4995002;28;20014;-62
2023/12/10 12:18:16;;;;;;;6.38;3.05;;;7.20;99.90;;;;;;4958009;28;20036;-62
2023/12/10 12:20:43;;;;;;;6.45;2.60;;;7.20;99.90;;;;;;4949262;28;20030;-62
2023/12/10 12:23:09;;;;;;;9.95;3.30;;;7.20;99.90;;;;;;4970457;28;20029;-62
2023/12/10 12:25:37;;;;;;;8.80;3.38;;;7.20;99.90;;;;;;4973686;28;20022;-62
2023/12/10 12:28:05;;;;;;;8.40;3.47;;;7.20;99.90;;;;;;4965626;28;20061;-62
2023/12/10 12:30:31;;;;;;;7.68;3.00;;;7.20;99.90;;;;;;4985918;28;20486;-62
2023/12/10 12:32:57;;;;;;;9.75;4.30;;;7.30;99.90;;;;;;4964808;28;20060;-62
2023/12/10 12:35:23;;;;;;;9.95;3.47;;;7.30;99.90;;;;;;4955175;28;20022;-62
2023/12/10 12:37:48;;;;;;;13.65;4.40;;;7.30;99.90;;;;;;4969128;28;20092;-61
2023/12/10 12:40:14;;;;;;;11.70;6.13;;;7.30;99.90;;;;;;4962078;28;21522;-62
2023/12/10 12:42:40;;;;;;;19.83;9.05;;;7.30;99.90;;;;;;4975948;28;20116;-62
2023/12/10 12:45:06;;;;;;;38.17;17.90;;;7.30;99.90;;;;;;4966575;28;20619;-62
2023/12/10 12:47:32;;;;;;;49.55;21.70;;;7.30;99.90;;;;;;4965867;28;20179;-62
2023/12/10 12:49:58;;;;;;;14.52;8.55;;;7.30;99.90;;;;;;4962899;28;20030;-62